Time;durP1;ratioP1;P1;durP2;ratioP2;P2;SDS_P1;SDS_P2;PMS_P1;PMS_P2;Temp;Humidity;BMP_temperature;BMP_pressure;BME280_temperature;BME280_humidity;BME280_pressure;Samples;Min_cycle;Max_cycle;Signal;HPM_P1;HPM_P2
2023/06/24 00:01:41;;;;;;;9.40;6.45;;;16.80;99.90;;;;;;5012787;28;20510;-73
2023/06/24 00:04:08;;;;;;;8.20;5.70;;;16.80;99.90;;;;;;5012398;28;20054;-73
2023/06/24 00:06:39;;;;;;;9.52;5.97;;;16.70;99.90;;;;;;5011781;28;20060;-73
2023/06/24 00:09:10;;;;;;;11.15;6.55;;;16.70;99.90;;;;;;4979721;28;20096;-74
2023/06/24 00:11:38;;;;;;;11.20;7.25;;;16.60;99.90;;;;;;4994548;28;20046;-73
2023/06/24 00:14:06;;;;;;;9.65;6.50;;;16.60;99.90;;;;;;4994840;28;20515;-73
2023/06/24 00:16:35;;;;;;;9.15;6.63;;;16.50;99.90;;;;;;4995254;28;20052;-74
2023/06/24 00:19:03;;;;;;;9.30;6.60;;;16.50;99.90;;;;;;4975872;28;20602;-73
2023/06/24 00:21:32;;;;;;;12.13;8.50;;;16.50;99.90;;;;;;5014004;28;20034;-73
2023/06/24 00:24:04;;;;;;;11.27;8.35;;;16.40;99.90;;;;;;5011451;28;20049;-73
2023/06/24 00:26:32;;;;;;;11.02;7.70;;;16.40;99.90;;;;;;5008724;28;20046;-73
2023/06/24 00:29:00;;;;;;;12.00;7.80;;;16.30;99.90;;;;;;4995451;28;20266;-73
2023/06/24 00:31:28;;;;;;;10.85;7.35;;;16.30;99.90;;;;;;5010534;28;20112;-73
2023/06/24 00:33:55;;;;;;;11.15;7.90;;;16.20;99.90;;;;;;4991781;28;20479;-72
2023/06/24 00:36:23;;;;;;;12.30;8.15;;;16.20;99.90;;;;;;5010391;28;20424;-74
2023/06/24 00:38:51;;;;;;;11.73;8.55;;;16.20;99.90;;;;;;5012398;28;20109;-73
2023/06/24 00:41:19;;;;;;;13.35;8.90;;;16.10;99.90;;;;;;5010346;28;20476;-73
2023/06/24 00:43:47;;;;;;;15.50;8.68;;;16.10;99.90;;;;;;5013593;28;20050;-73
2023/06/24 00:46:19;;;;;;;12.25;8.45;;;16.00;99.90;;;;;;4989812;28;20089;-73
2023/06/24 00:48:50;;;;;;;9.00;7.03;;;15.90;99.90;;;;;;5013554;28;20057;-73
2023/06/24 00:51:20;;;;;;;9.57;7.15;;;15.90;99.90;;;;;;5009574;28;20053;-73
2023/06/24 00:53:49;;;;;;;13.02;7.85;;;15.90;99.90;;;;;;5011314;28;20508;-73
2023/06/24 00:56:31;;;;;;;8.88;7.18;;;15.90;99.90;;;;;;4983350;28;20132;-73
2023/06/24 00:59:01;;;;;;;11.00;8.02;;;15.80;99.90;;;;;;5012027;28;20573;-72
2023/06/24 01:01:33;;;;;;;11.13;7.40;;;15.80;99.90;;;;;;4983443;28;20127;-73
2023/06/24 01:04:02;;;;;;;9.30;6.90;;;15.80;99.90;;;;;;5015895;28;20060;-73
2023/06/24 01:06:31;;;;;;;9.63;7.50;;;15.70;99.90;;;;;;5026871;28;20041;-73
2023/06/24 01:09:00;;;;;;;9.90;7.20;;;15.70;99.90;;;;;;5011537;28;20449;-72
2023/06/24 01:11:28;;;;;;;11.77;8.55;;;15.60;99.90;;;;;;4994321;28;20042;-72
2023/06/24 01:13:57;;;;;;;10.27;7.57;;;15.60;99.90;;;;;;5009240;28;20050;-73
2023/06/24 01:17:05;;;;;;;10.07;7.50;;;15.60;99.90;;;;;;4993595;28;20054;-73
2023/06/24 01:19:54;;;;;;;10.10;7.88;;;15.60;99.90;;;;;;5009112;28;20046;-73
2023/06/24 01:22:40;;;;;;;9.88;7.53;;;15.50;99.90;;;;;;4992443;28;20056;-72
2023/06/24 01:25:35;;;;;;;9.65;7.25;;;15.50;99.90;;;;;;4977268;28;20050;-73
2023/06/24 01:28:40;;;;;;;10.65;7.55;;;15.50;99.90;;;;;;5011754;28;20050;-72
2023/06/24 01:32:06;;;;;;;10.85;7.88;;;15.50;99.90;;;;;;4993686;28;20465;-74
2023/06/24 01:35:00;;;;;;;9.25;7.00;;;15.40;99.90;;;;;;4906356;29;20119;-73
2023/06/24 01:37:54;;;;;;;9.48;7.35;;;15.40;99.90;;;;;;4913519;29;20111;-73
2023/06/24 01:40:40;;;;;;;10.77;7.97;;;15.50;99.90;;;;;;4933037;29;20051;-73
2023/06/24 01:43:09;;;;;;;11.23;7.18;;;15.50;99.90;;;;;;4917597;29;20088;-74
2023/06/24 01:45:42;;;;;;;12.80;8.65;;;15.50;99.90;;;;;;4919514;29;20082;-73
2023/06/24 01:48:38;;;;;;;10.80;8.45;;;15.40;99.90;;;;;;4924670;29;20294;-73
2023/06/24 01:51:19;;;;;;;13.23;8.90;;;15.30;99.90;;;;;;4943835;29;20055;-73
2023/06/24 01:53:57;;;;;;;12.02;8.55;;;15.30;99.90;;;;;;4920189;29;20079;-73
2023/06/24 01:56:28;;;;;;;11.73;8.63;;;15.30;99.90;;;;;;4950294;29;20091;-73
2023/06/24 01:59:00;;;;;;;11.90;8.60;;;15.30;99.90;;;;;;4935266;29;20051;-73
2023/06/24 02:01:31;;;;;;;12.57;8.63;;;15.30;99.90;;;;;;4923880;29;20139;-73
2023/06/24 02:04:01;;;;;;;11.63;8.13;;;15.30;99.90;;;;;;4938563;29;20058;-73
2023/06/24 02:06:32;;;;;;;11.48;8.25;;;15.40;99.90;;;;;;4988806;28;20058;-74
2023/06/24 02:09:03;;;;;;;11.10;7.80;;;15.50;99.90;;;;;;4996083;28;20054;-73
2023/06/24 02:11:33;;;;;;;11.95;8.23;;;15.50;99.90;;;;;;5007278;28;20429;-73
2023/06/24 02:14:04;;;;;;;11.05;7.13;;;15.50;99.90;;;;;;5006984;28;20506;-73
2023/06/24 02:16:35;;;;;;;12.45;8.10;;;15.40;99.90;;;;;;4993821;28;20532;-73
2023/06/24 02:19:04;;;;;;;12.32;8.43;;;15.40;99.90;;;;;;5010448;28;20126;-73
2023/06/24 02:21:35;;;;;;;11.35;7.70;;;15.40;99.90;;;;;;4993565;28;20042;-74
2023/06/24 02:24:04;;;;;;;10.93;7.53;;;15.40;99.90;;;;;;5003972;28;20567;-74
2023/06/24 02:26:32;;;;;;;9.85;7.97;;;15.40;99.90;;;;;;5010160;28;20053;-73
2023/06/24 02:29:01;;;;;;;12.32;8.75;;;15.40;99.90;;;;;;5013046;28;20076;-73
2023/06/24 02:31:31;;;;;;;12.93;8.52;;;15.40;99.90;;;;;;4978252;28;20533;-73
2023/06/24 02:33:59;;;;;;;13.15;8.27;;;15.40;99.90;;;;;;4977107;28;20552;-73
2023/06/24 02:36:28;;;;;;;12.65;8.57;;;15.40;99.90;;;;;;4994293;28;20076;-73
2023/06/24 02:38:57;;;;;;;10.57;8.10;;;15.40;99.90;;;;;;5008736;28;20393;-72
2023/06/24 02:41:24;;;;;;;12.75;8.32;;;15.40;99.90;;;;;;4993054;28;20057;-74
2023/06/24 02:43:51;;;;;;;14.43;8.88;;;15.40;99.90;;;;;;5009730;28;20089;-73
2023/06/24 02:46:20;;;;;;;11.05;7.43;;;15.30;99.90;;;;;;4994509;28;20046;-73
2023/06/24 02:48:52;;;;;;;11.30;7.32;;;15.40;99.90;;;;;;5008746;28;20093;-73
2023/06/24 02:51:20;;;;;;;11.75;8.50;;;15.40;99.90;;;;;;5006662;28;20085;-74
2023/06/24 02:53:49;;;;;;;10.95;8.05;;;15.40;99.90;;;;;;5008005;28;20045;-74
2023/06/24 02:56:24;;;;;;;10.88;7.88;;;15.40;99.90;;;;;;5005345;28;20145;-74
2023/06/24 02:58:55;;;;;;;11.88;8.02;;;15.40;99.90;;;;;;5012590;28;20054;-73
2023/06/24 03:01:27;;;;;;;10.90;7.40;;;15.40;99.90;;;;;;5009955;28;20038;-73
2023/06/24 03:03:58;;;;;;;11.93;7.25;;;15.30;99.90;;;;;;5010386;28;20149;-73
2023/06/24 03:06:26;;;;;;;10.05;6.97;;;15.30;99.90;;;;;;4995977;28;20140;-73
2023/06/24 03:08:58;;;;;;;10.63;7.80;;;15.30;99.90;;;;;;4997595;28;20497;-74
2023/06/24 03:11:27;;;;;;;10.00;7.82;;;15.20;99.90;;;;;;4975505;28;20053;-73
2023/06/24 03:13:59;;;;;;;9.75;7.80;;;15.30;99.90;;;;;;4997156;28;20100;-73
2023/06/24 03:16:35;;;;;;;11.23;7.63;;;15.20;99.90;;;;;;4999264;28;20049;-74
2023/06/24 03:19:12;;;;;;;10.88;7.50;;;15.20;99.90;;;;;;4991264;28;20054;-73
2023/06/24 03:21:41;;;;;;;11.55;7.75;;;15.20;99.90;;;;;;5009292;28;20417;-73
2023/06/24 03:24:12;;;;;;;;;;;15.20;99.90;;;;;;5014189;28;20403;-73
2023/06/24 03:26:42;;;;;;;9.57;7.10;;;15.10;99.90;;;;;;5015789;28;19925;-73
2023/06/24 03:29:12;;;;;;;11.38;7.85;;;15.10;99.90;;;;;;4998494;28;20061;-73
2023/06/24 03:31:50;;;;;;;12.55;7.57;;;15.10;99.90;;;;;;5028159;28;20382;-73
2023/06/24 03:34:21;;;;;;;;;;;15.10;99.90;;;;;;4999632;28;20516;-73
2023/06/24 03:36:49;;;;;;;11.77;7.32;;;15.10;99.90;;;;;;5017186;28;20001;-74
2023/06/24 03:39:17;;;;;;;11.30;7.72;;;15.10;99.90;;;;;;5015094;28;20108;-72
2023/06/24 03:41:45;;;;;;;10.77;7.35;;;15.10;99.90;;;;;;5017360;28;20133;-72
2023/06/24 03:44:15;;;;;;;10.80;7.47;;;15.10;99.90;;;;;;4998208;28;20049;-72
2023/06/24 03:46:43;;;;;;;11.32;7.93;;;15.10;99.90;;;;;;5015598;28;20052;-72
2023/06/24 03:49:11;;;;;;;11.20;7.95;;;15.10;99.90;;;;;;4998548;28;20058;-72
2023/06/24 03:51:40;;;;;;;10.77;8.00;;;15.10;99.90;;;;;;4997775;28;20057;-74
2023/06/24 03:54:09;;;;;;;10.70;8.27;;;15.10;99.90;;;;;;5014312;28;20049;-73
2023/06/24 03:56:38;;;;;;;10.95;8.00;;;15.10;99.90;;;;;;5019580;28;20509;-73
2023/06/24 03:59:05;;;;;;;9.57;7.22;;;15.10;99.90;;;;;;4978967;28;20525;-73
2023/06/24 04:01:33;;;;;;;10.45;8.13;;;15.20;99.90;;;;;;5016543;28;20046;-73
2023/06/24 04:04:00;;;;;;;11.98;9.40;;;15.20;99.90;;;;;;5015170;28;20054;-73
2023/06/24 04:06:28;;;;;;;12.30;8.95;;;15.30;99.90;;;;;;5015435;28;20425;-73
2023/06/24 04:08:58;;;;;;;15.40;8.80;;;15.30;99.90;;;;;;5016876;28;20469;-74
2023/06/24 04:11:26;;;;;;;12.55;9.35;;;15.30;99.90;;;;;;5019675;28;20065;-72
2023/06/24 04:13:54;;;;;;;11.73;8.60;;;15.40;99.90;;;;;;5009974;28;20068;-72
2023/06/24 04:16:22;;;;;;;11.65;8.90;;;15.40;99.90;;;;;;5001118;28;20153;-72
2023/06/24 04:18:49;;;;;;;12.73;8.38;;;15.40;99.90;;;;;;5014609;28;20068;-73
2023/06/24 04:21:17;;;;;;;12.35;8.43;;;15.40;99.90;;;;;;4982225;28;20148;-73
2023/06/24 04:23:45;;;;;;;11.90;7.60;;;15.50;99.90;;;;;;4997425;28;20056;-73
2023/06/24 04:26:13;;;;;;;12.07;7.72;;;15.50;99.90;;;;;;5016068;28;20046;-73
2023/06/24 04:28:42;;;;;;;10.63;7.60;;;15.60;99.90;;;;;;4997097;28;20042;-74
2023/06/24 04:31:10;;;;;;;10.52;7.88;;;15.60;99.90;;;;;;4997608;28;20052;-74
2023/06/24 04:33:38;;;;;;;12.00;8.20;;;15.60;99.90;;;;;;4995084;28;20049;-72
2023/06/24 04:36:06;;;;;;;11.38;8.50;;;15.60;99.90;;;;;;4994495;28;20072;-73
2023/06/24 04:38:33;;;;;;;9.93;8.05;;;15.60;99.90;;;;;;5012054;28;20529;-73
2023/06/24 04:41:03;;;;;;;9.98;7.75;;;15.60;99.90;;;;;;4994990;28;20053;-74
2023/06/24 04:43:31;;;;;;;10.70;7.78;;;15.80;99.90;;;;;;5003407;28;20153;-73
2023/06/24 04:45:58;;;;;;;12.68;8.90;;;15.80;99.90;;;;;;4995740;28;20114;-73
2023/06/24 04:48:27;;;;;;;11.85;8.57;;;15.80;99.90;;;;;;4997071;28;20422;-73
2023/06/24 04:50:55;;;;;;;11.65;8.20;;;15.80;99.90;;;;;;4995005;28;20049;-73
2023/06/24 04:53:24;;;;;;;12.02;8.35;;;15.90;99.90;;;;;;4994163;28;20525;-74
2023/06/24 04:55:52;;;;;;;12.30;8.82;;;16.10;99.90;;;;;;5022604;28;20124;-72
2023/06/24 04:58:19;;;;;;;11.48;8.52;;;16.10;99.90;;;;;;5012078;28;20057;-73
2023/06/24 05:00:48;;;;;;;9.32;7.03;;;16.10;99.90;;;;;;4994450;28;20049;-73
2023/06/24 05:03:15;;;;;;;10.30;7.80;;;16.20;99.90;;;;;;4996436;28;20052;-73
2023/06/24 05:05:43;;;;;;;11.48;8.23;;;16.30;99.90;;;;;;4977746;28;20064;-74
2023/06/24 05:08:11;;;;;;;10.70;7.80;;;16.40;99.90;;;;;;5010760;28;20049;-74
2023/06/24 05:10:39;;;;;;;10.85;8.15;;;16.50;99.90;;;;;;5022898;28;20518;-73
2023/06/24 05:13:06;;;;;;;9.35;7.38;;;16.50;99.90;;;;;;4993501;28;20471;-73
2023/06/24 05:15:34;;;;;;;11.18;7.60;;;16.50;99.90;;;;;;5011455;28;20046;-73
2023/06/24 05:18:02;;;;;;;10.98;7.20;;;16.50;99.90;;;;;;5010346;28;20042;-73
2023/06/24 05:20:30;;;;;;;9.68;7.38;;;16.50;99.90;;;;;;5010353;28;20038;-73
2023/06/24 05:22:57;;;;;;;10.07;8.18;;;16.60;99.90;;;;;;5010767;28;20050;-73
2023/06/24 05:25:25;;;;;;;9.80;7.88;;;16.60;99.90;;;;;;5010554;28;20108;-73
2023/06/24 05:27:52;;;;;;;9.88;7.05;;;16.70;99.90;;;;;;5011032;28;20521;-74
2023/06/24 05:30:20;;;;;;;12.45;7.97;;;16.90;99.90;;;;;;4991765;28;20145;-74
2023/06/24 05:32:49;;;;;;;8.68;7.10;;;16.90;99.90;;;;;;5010624;28;20540;-73
2023/06/24 05:35:16;;;;;;;9.90;7.63;;;17.00;99.90;;;;;;4993464;28;20045;-73
2023/06/24 05:37:44;;;;;;;10.05;8.32;;;17.00;99.90;;;;;;5010236;28;20066;-74
2023/06/24 05:40:12;;;;;;;12.35;7.35;;;17.10;99.90;;;;;;5009481;28;20116;-74
2023/06/24 05:42:40;;;;;;;8.48;6.90;;;17.10;99.90;;;;;;5008873;28;20049;-74
2023/06/24 05:45:08;;;;;;;8.70;6.90;;;17.10;99.90;;;;;;4993195;28;20085;-73
2023/06/24 05:47:36;;;;;;;8.98;6.95;;;17.10;99.90;;;;;;5004988;28;20046;-73
2023/06/24 05:50:05;;;;;;;9.45;6.85;;;17.30;99.90;;;;;;4998109;28;20082;-74
2023/06/24 05:52:32;;;;;;;8.63;6.57;;;17.40;99.90;;;;;;5000960;28;20465;-73
2023/06/24 05:55:01;;;;;;;11.18;7.45;;;17.60;99.90;;;;;;5009620;28;20592;-74
2023/06/24 05:57:29;;;;;;;10.20;6.90;;;17.60;99.90;;;;;;5007169;28;20042;-73
2023/06/24 05:59:56;;;;;;;9.65;7.10;;;17.70;99.90;;;;;;5011239;28;20050;-74
2023/06/24 06:02:23;;;;;;;8.90;6.88;;;17.80;99.90;;;;;;4993231;28;20074;-73
2023/06/24 06:04:51;;;;;;;11.40;7.30;;;17.80;99.90;;;;;;5008908;28;20099;-73
2023/06/24 06:07:18;;;;;;;8.23;6.30;;;17.80;99.90;;;;;;4981085;28;20057;-74
2023/06/24 06:09:47;;;;;;;9.90;7.55;;;17.90;99.90;;;;;;5015627;28;20045;-73
2023/06/24 06:12:15;;;;;;;12.70;7.65;;;17.90;99.90;;;;;;5014166;28;20403;-74
2023/06/24 06:14:44;;;;;;;10.63;7.15;;;18.00;99.90;;;;;;5014493;28;20425;-74
2023/06/24 06:17:15;;;;;;;10.48;7.18;;;18.10;99.90;;;;;;5010284;28;20104;-72
2023/06/24 06:19:46;;;;;;;10.02;6.93;;;18.20;99.90;;;;;;5010981;28;20045;-72
2023/06/24 06:22:17;;;;;;;10.45;7.13;;;18.30;99.90;;;;;;5009208;28;20088;-73
2023/06/24 06:24:45;;;;;;;10.88;6.55;;;18.20;99.90;;;;;;5010494;28;20050;-74
2023/06/24 06:27:13;;;;;;;10.77;6.68;;;18.10;99.90;;;;;;5009289;28;20500;-73
2023/06/24 06:29:40;;;;;;;9.77;6.72;;;18.20;99.90;;;;;;5009056;28;20476;-73
2023/06/24 06:32:08;;;;;;;10.02;6.28;;;18.30;99.90;;;;;;5012037;28;20292;-73
2023/06/24 06:34:36;;;;;;;9.05;6.50;;;18.30;99.90;;;;;;5012154;28;20088;-73
2023/06/24 06:37:04;;;;;;;9.88;6.68;;;18.30;99.90;;;;;;5027611;28;20461;-72
2023/06/24 06:39:33;;;;;;;7.57;5.45;;;18.30;99.90;;;;;;5012761;28;20041;-73
2023/06/24 06:42:01;;;;;;;7.45;5.93;;;18.40;99.90;;;;;;5013749;28;20116;-73
2023/06/24 06:44:28;;;;;;;8.85;6.18;;;18.60;99.90;;;;;;4981690;28;20148;-73
2023/06/24 06:46:56;;;;;;;8.25;6.45;;;18.60;99.90;;;;;;4991809;28;20056;-74
2023/06/24 06:49:24;;;;;;;9.23;6.82;;;18.70;99.90;;;;;;4974999;28;20052;-74
2023/06/24 06:51:55;;;;;;;7.82;5.95;;;18.60;99.90;;;;;;5007365;28;20046;-73
2023/06/24 06:54:22;;;;;;;7.75;5.28;;;18.70;99.90;;;;;;4991873;28;20371;-74
2023/06/24 06:56:50;;;;;;;6.75;5.53;;;18.90;99.90;;;;;;5011273;28;20413;-72
2023/06/24 06:59:18;;;;;;;7.10;5.95;;;19.00;99.90;;;;;;5008422;28;20596;-73
2023/06/24 07:01:46;;;;;;;8.65;6.22;;;19.00;99.90;;;;;;4989125;28;20054;-74
2023/06/24 07:04:14;;;;;;;7.40;6.03;;;19.00;99.90;;;;;;5007344;28;20389;-74
2023/06/24 07:06:41;;;;;;;8.60;6.22;;;19.00;99.90;;;;;;4992841;28;20056;-73
2023/06/24 07:09:09;;;;;;;7.75;6.47;;;19.30;99.90;;;;;;4983772;28;20108;-74
2023/06/24 07:11:37;;;;;;;8.68;6.53;;;19.40;99.90;;;;;;4992936;28;20116;-74
2023/06/24 07:14:06;;;;;;;8.93;5.93;;;19.50;99.90;;;;;;5009152;28;20081;-74
2023/06/24 07:16:37;;;;;;;7.83;6.30;;;19.60;99.90;;;;;;4976234;28;20064;-73
2023/06/24 07:19:04;;;;;;;7.97;6.10;;;19.70;99.90;;;;;;5009360;28;20112;-75
2023/06/24 07:21:31;;;;;;;9.07;6.05;;;19.60;99.90;;;;;;4994804;28;20147;-72
2023/06/24 07:24:00;;;;;;;9.15;6.22;;;19.70;99.90;;;;;;5009061;28;20577;-73
2023/06/24 07:26:29;;;;;;;7.50;6.47;;;19.80;99.90;;;;;;4988742;28;20066;-74
2023/06/24 07:29:00;;;;;;;10.27;6.32;;;19.70;99.90;;;;;;4993673;28;20049;-73
2023/06/24 07:31:38;;;;;;;8.93;6.45;;;19.60;99.90;;;;;;5005749;28;20074;-74
2023/06/24 07:34:06;;;;;;;9.18;6.15;;;19.70;99.90;;;;;;4988051;28;20445;-74
2023/06/24 07:36:33;;;;;;;8.60;6.85;;;19.90;99.90;;;;;;4984136;28;20101;-75
2023/06/24 07:39:01;;;;;;;7.68;6.18;;;20.00;99.90;;;;;;5004824;28;20050;-74
2023/06/24 07:41:28;;;;;;;8.43;7.18;;;20.10;99.90;;;;;;4999414;28;20544;-73
2023/06/24 07:43:56;;;;;;;8.77;6.72;;;20.30;99.90;;;;;;5002697;28;20453;-73
2023/06/24 07:46:23;;;;;;;8.23;6.57;;;20.30;99.90;;;;;;5008190;28;20152;-73
2023/06/24 07:48:50;;;;;;;8.50;6.97;;;20.30;99.90;;;;;;4997988;28;20214;-73
2023/06/24 07:51:18;;;;;;;9.13;6.97;;;20.40;99.90;;;;;;5009465;28;20065;-73
2023/06/24 07:53:46;;;;;;;9.52;7.15;;;20.50;99.90;;;;;;5006682;28;20478;-73
2023/06/24 07:56:13;;;;;;;9.48;6.88;;;20.50;99.90;;;;;;5024993;28;20061;-74
2023/06/24 07:58:43;;;;;;;12.23;7.90;;;20.50;99.90;;;;;;5008412;28;20123;-74
2023/06/24 08:01:11;;;;;;;9.40;6.45;;;20.50;99.90;;;;;;5014065;28;20638;-74
2023/06/24 08:03:38;;;;;;;10.43;7.03;;;20.50;99.90;;;;;;5000951;28;20050;-74
2023/06/24 08:06:06;;;;;;;9.23;7.20;;;20.60;99.90;;;;;;5010165;28;20157;-74
2023/06/24 08:08:35;;;;;;;10.85;7.53;;;20.70;99.90;;;;;;5011849;28;20073;-74
2023/06/24 08:11:03;;;;;;;8.90;7.28;;;20.80;99.90;;;;;;5009157;28;20046;-73
2023/06/24 08:13:31;;;;;;;8.18;7.05;;;20.90;99.90;;;;;;5012631;28;20502;-74
2023/06/24 08:15:59;;;;;;;10.70;7.72;;;20.90;99.90;;;;;;4995981;28;20050;-73
2023/06/24 08:18:29;;;;;;;9.65;7.45;;;20.80;99.90;;;;;;5019832;28;20453;-73
2023/06/24 08:20:56;;;;;;;13.43;7.40;;;20.80;99.90;;;;;;5012906;28;20519;-74
2023/06/24 08:23:25;;;;;;;11.10;7.60;;;20.90;99.90;;;;;;5012449;28;20065;-73
2023/06/24 08:25:52;;;;;;;8.23;7.18;;;21.00;99.90;;;;;;5021301;28;20053;-75
2023/06/24 08:28:35;;;;;;;11.27;7.38;;;21.10;99.90;;;;;;5004926;28;20157;-71
2023/06/24 08:31:02;;;;;;;9.00;7.70;;;21.30;99.90;;;;;;5010130;28;20116;-73
2023/06/24 08:33:30;;;;;;;9.65;7.65;;;21.50;99.90;;;;;;5011047;28;20501;-75
2023/06/24 08:35:58;;;;;;;9.02;7.03;;;21.50;99.90;;;;;;4993173;28;20600;-75
2023/06/24 08:38:26;;;;;;;10.07;7.25;;;21.60;99.90;;;;;;4995295;28;20061;-72
2023/06/24 08:40:53;;;;;;;8.60;7.60;;;21.70;99.90;;;;;;5010831;28;20133;-75
2023/06/24 08:43:22;;;;;;;9.73;7.72;;;21.70;99.90;;;;;;5015058;28;20046;-73
2023/06/24 08:45:49;;;;;;;9.60;7.93;;;21.70;99.90;;;;;;4980555;28;20527;-73
2023/06/24 08:48:19;;;;;;;10.65;7.70;;;21.70;99.90;;;;;;5011681;28;20418;-74
2023/06/24 08:50:54;;;;;;;9.68;7.68;;;21.70;99.90;;;;;;5011698;28;20077;-73
2023/06/24 08:53:26;;;;;;;8.00;7.20;;;21.90;99.90;;;;;;5012228;28;20058;-74
2023/06/24 08:55:56;;;;;;;9.40;7.40;;;22.10;99.90;;;;;;5030299;28;20041;-74
2023/06/24 08:58:23;;;;;;;10.60;8.02;;;22.20;99.90;;;;;;4979879;28;20057;-74
2023/06/24 09:00:51;;;;;;;8.70;7.78;;;22.20;99.90;;;;;;4980043;28;20073;-74
2023/06/24 09:03:18;;;;;;;10.25;7.60;;;22.20;99.90;;;;;;5019215;28;20049;-72
2023/06/24 09:05:46;;;;;;;10.10;7.38;;;22.30;99.90;;;;;;4996346;28;20204;-72
2023/06/24 09:08:13;;;;;;;11.68;8.00;;;22.50;99.90;;;;;;4994407;28;20121;-72
2023/06/24 09:10:41;;;;;;;9.13;7.85;;;22.50;99.90;;;;;;5010034;28;20109;-74
2023/06/24 09:13:08;;;;;;;9.95;7.82;;;22.60;99.90;;;;;;4976931;28;20064;-73
2023/06/24 09:15:37;;;;;;;8.80;7.10;;;22.50;99.90;;;;;;5009719;28;20549;-73
2023/06/24 09:18:05;;;;;;;8.10;6.65;;;22.50;99.90;;;;;;5008733;28;20050;-74
2023/06/24 09:20:39;;;;;;;8.35;6.25;;;22.80;99.90;;;;;;4976216;28;20056;-72
2023/06/24 09:23:07;;;;;;;7.72;6.35;;;22.90;99.90;;;;;;5009966;28;20053;-73
2023/06/24 09:25:34;;;;;;;7.50;6.50;;;23.00;99.90;;;;;;5009777;28;20549;-73
2023/06/24 09:28:03;;;;;;;7.50;6.63;;;23.10;99.90;;;;;;5009697;28;20058;-72
2023/06/24 09:30:30;;;;;;;6.50;5.40;;;23.20;99.90;;;;;;5002941;28;20157;-73
2023/06/24 09:32:58;;;;;;;6.68;5.97;;;23.50;99.90;;;;;;4992552;28;20062;-72
2023/06/24 09:35:26;;;;;;;7.75;6.15;;;23.80;99.90;;;;;;4993841;28;20050;-72
2023/06/24 09:37:56;;;;;;;6.93;6.22;;;24.00;99.90;;;;;;5009840;28;20054;-73
2023/06/24 09:40:24;;;;;;;7.75;6.45;;;23.90;99.90;;;;;;5007905;28;20526;-73
2023/06/24 09:42:54;;;;;;;7.40;6.70;;;24.00;99.90;;;;;;4990263;28;20145;-73
2023/06/24 09:45:27;;;;;;;7.30;6.60;;;24.20;99.90;;;;;;5009254;28;20486;-73
2023/06/24 09:47:56;;;;;;;6.78;6.15;;;24.20;99.90;;;;;;5010813;28;20050;-73
2023/06/24 09:50:23;;;;;;;8.13;6.40;;;24.40;99.90;;;;;;5011053;28;20163;-74
2023/06/24 09:52:52;;;;;;;7.13;6.38;;;24.70;99.90;;;;;;5017910;28;20054;-74
2023/06/24 09:55:19;;;;;;;6.78;6.07;;;24.60;99.90;;;;;;5017987;28;20165;-74
2023/06/24 09:57:51;;;;;;;6.72;6.07;;;24.70;99.90;;;;;;5016561;28;20083;-72
2023/06/24 10:00:19;;;;;;;;;;;25.00;99.90;;;;;;5008263;28;20074;-73
2023/06/24 10:02:48;;;;;;;7.35;6.10;;;24.90;99.90;;;;;;5006870;28;19922;-73
2023/06/24 10:05:17;;;;;;;7.13;6.10;;;24.90;99.90;;;;;;5010845;28;20054;-73
2023/06/24 10:07:45;;;;;;;6.50;5.53;;;25.00;99.90;;;;;;5015760;28;20074;-73
2023/06/24 10:10:13;;;;;;;7.60;6.40;;;24.90;99.90;;;;;;5008785;28;20119;-73
2023/06/24 10:12:41;;;;;;;8.65;6.22;;;25.10;99.90;;;;;;5008703;28;20053;-73
2023/06/24 10:15:09;;;;;;;6.78;6.15;;;25.00;99.90;;;;;;5008910;28;20069;-73
2023/06/24 10:17:37;;;;;;;6.20;5.60;;;25.10;99.90;;;;;;4972493;28;20522;-73
2023/06/24 10:20:08;;;;;;;7.15;6.45;;;25.30;99.90;;;;;;5005169;28;20045;-73
2023/06/24 10:22:36;;;;;;;7.03;6.32;;;25.40;99.90;;;;;;5008317;28;20042;-73
2023/06/24 10:25:07;;;;;;;6.57;5.90;;;25.20;99.90;;;;;;5009914;28;20049;-73
2023/06/24 10:27:39;;;;;;;6.50;5.90;;;25.10;99.90;;;;;;4992739;28;20141;-74
2023/06/24 10:30:07;;;;;;;7.07;6.40;;;25.30;99.90;;;;;;5010514;28;20109;-74
2023/06/24 10:32:42;;;;;;;7.43;6.18;;;25.20;99.90;;;;;;5002755;28;20100;-74
2023/06/24 10:35:25;;;;;;;6.95;6.30;;;25.30;99.90;;;;;;4992680;28;20061;-74
2023/06/24 10:37:58;;;;;;;7.55;6.43;;;25.50;99.90;;;;;;4987254;28;20108;-74
2023/06/24 10:40:37;;;;;;;7.07;5.72;;;25.70;99.90;;;;;;5009787;28;20076;-74
2023/06/24 10:43:29;;;;;;;6.80;6.05;;;25.80;99.90;;;;;;5009418;28;20116;-75
2023/06/24 10:45:58;;;;;;;7.50;6.10;;;26.30;99.90;;;;;;4982573;28;20068;-74
2023/06/24 10:48:26;;;;;;;7.47;6.20;;;26.40;99.90;;;;;;4992764;28;20145;-74
2023/06/24 10:50:54;;;;;;;7.22;5.93;;;26.60;99.90;;;;;;5017272;28;20121;-74
2023/06/24 10:53:22;;;;;;;7.35;6.50;;;26.80;99.90;;;;;;4992163;28;20536;-74
2023/06/24 10:55:50;;;;;;;6.60;6.00;;;27.20;99.70;;;;;;5011204;28;20099;-74
2023/06/24 10:58:17;;;;;;;7.20;6.50;;;27.10;99.20;;;;;;4993561;28;20528;-74
2023/06/24 11:00:46;;;;;;;6.40;5.80;;;27.20;99.40;;;;;;4991320;28;20054;-74
2023/06/24 11:03:16;;;;;;;7.18;6.38;;;27.20;99.40;;;;;;4974232;28;20089;-74
2023/06/24 11:05:46;;;;;;;7.57;6.13;;;27.40;98.90;;;;;;4985504;28;20293;-74
2023/06/24 11:08:14;;;;;;;6.55;5.93;;;27.50;98.00;;;;;;5008618;28;20470;-74
2023/06/24 11:10:46;;;;;;;6.85;6.20;;;27.80;97.70;;;;;;5008449;28;20076;-75
2023/06/24 11:13:14;;;;;;;7.40;6.20;;;28.40;97.00;;;;;;4991307;28;20125;-73
2023/06/24 11:15:42;;;;;;;7.80;6.60;;;28.80;96.50;;;;;;5015704;28;20045;-74
2023/06/24 11:18:10;;;;;;;7.10;6.30;;;29.10;96.00;;;;;;5007772;28;20046;-73
2023/06/24 11:20:38;;;;;;;7.68;6.70;;;28.90;95.30;;;;;;4991065;28;20058;-73
2023/06/24 11:23:10;;;;;;;7.97;6.43;;;29.30;95.20;;;;;;4994275;28;20128;-73
2023/06/24 11:25:40;;;;;;;7.53;6.82;;;30.10;94.20;;;;;;5012682;28;20454;-74
2023/06/24 11:28:17;;;;;;;9.50;6.38;;;30.60;93.10;;;;;;4996431;28;20068;-74
2023/06/24 11:30:49;;;;;;;8.70;6.60;;;30.10;92.20;;;;;;5009591;28;20132;-74
2023/06/24 11:33:29;;;;;;;7.65;6.95;;;29.70;92.80;;;;;;4992434;28;20054;-74
2023/06/24 11:35:57;;;;;;;8.25;6.40;;;29.70;92.60;;;;;;5008543;28;20104;-74
2023/06/24 11:38:31;;;;;;;7.68;6.75;;;29.20;93.10;;;;;;4993383;28;20080;-73
2023/06/24 11:41:00;;;;;;;7.70;6.70;;;28.80;93.10;;;;;;5008739;28;20054;-74
2023/06/24 11:43:28;;;;;;;7.05;6.35;;;28.60;93.40;;;;;;5008491;28;20042;-74
2023/06/24 11:45:57;;;;;;;7.10;6.50;;;27.80;94.20;;;;;;5005368;28;20046;-73
2023/06/24 11:48:31;;;;;;;7.97;6.10;;;27.70;94.20;;;;;;4998693;28;20049;-73
2023/06/24 11:50:59;;;;;;;7.55;6.75;;;28.00;92.90;;;;;;5004581;28;20070;-74
2023/06/24 11:53:40;;;;;;;7.55;6.70;;;28.50;93.40;;;;;;5013230;28;20045;-74
2023/06/24 11:56:07;;;;;;;7.03;6.43;;;29.10;92.00;;;;;;5000211;28;20111;-74
2023/06/24 11:58:36;;;;;;;7.22;6.38;;;29.20;91.10;;;;;;4995697;28;20462;-74
2023/06/24 12:01:07;;;;;;;9.07;6.18;;;29.70;91.10;;;;;;5013095;28;20057;-74
2023/06/24 12:03:35;;;;;;;8.23;6.63;;;30.10;90.80;;;;;;4996771;28;20045;-74
2023/06/24 12:06:03;;;;;;;7.38;6.68;;;29.90;90.20;;;;;;5012713;28;20064;-74
2023/06/24 12:08:30;;;;;;;6.78;6.18;;;29.60;90.00;;;;;;5011150;28;20100;-74
2023/06/24 12:11:17;;;;;;;6.78;6.03;;;29.00;88.80;;;;;;5011769;28;20053;-73
2023/06/24 12:13:45;;;;;;;7.88;6.50;;;28.80;90.00;;;;;;5009867;28;20536;-73
2023/06/24 12:16:12;;;;;;;6.72;6.03;;;29.30;90.10;;;;;;5012320;28;20073;-74
2023/06/24 12:18:39;;;;;;;7.35;6.65;;;29.80;89.60;;;;;;4989386;28;20553;-73
2023/06/24 12:21:09;;;;;;;6.90;5.82;;;30.70;85.40;;;;;;4995178;28;20046;-74
2023/06/24 12:23:36;;;;;;;7.55;6.13;;;31.00;84.90;;;;;;5012643;28;20042;-74
2023/06/24 12:26:03;;;;;;;6.65;6.05;;;31.50;84.20;;;;;;4991415;28;20069;-74
2023/06/24 12:28:31;;;;;;;6.82;6.22;;;31.60;82.30;;;;;;5011088;28;20089;-74
2023/06/24 12:30:58;;;;;;;6.72;6.13;;;31.20;82.20;;;;;;4994952;28;20064;-73
2023/06/24 12:33:26;;;;;;;8.90;7.97;;;31.80;82.40;;;;;;5011703;28;20089;-73
2023/06/24 12:35:54;;;;;;;6.95;6.35;;;32.30;81.20;;;;;;5011633;28;20053;-73
2023/06/24 12:38:22;;;;;;;7.18;6.45;;;32.10;80.30;;;;;;5011401;28;20077;-73
2023/06/24 12:40:49;;;;;;;7.15;6.47;;;31.90;79.30;;;;;;5017149;28;20073;-73
2023/06/24 12:43:17;;;;;;;8.40;6.68;;;32.00;79.40;;;;;;4998689;28;20430;-73
2023/06/24 12:45:44;;;;;;;7.10;6.40;;;32.30;78.60;;;;;;5011944;28;20100;-73
2023/06/24 12:48:13;;;;;;;6.57;5.93;;;32.50;78.00;;;;;;4994027;28;20050;-73
2023/06/24 12:50:41;;;;;;;6.38;5.88;;;32.80;77.10;;;;;;5010325;28;20049;-73
2023/06/24 12:53:10;;;;;;;6.93;6.05;;;33.20;75.80;;;;;;5010241;28;20061;-73
2023/06/24 12:55:38;;;;;;;7.03;6.32;;;32.70;76.00;;;;;;5009082;28;20057;-74
2023/06/24 12:58:05;;;;;;;7.20;6.40;;;33.10;76.00;;;;;;5011432;28;20402;-73